Time;durP1;ratioP1;P1;durP2;ratioP2;P2;SDS_P1;SDS_P2;PMS_P1;PMS_P2;Temp;Humidity;BMP_temperature;BMP_pressure;BME280_temperature;BME280_humidity;BME280_pressure;Samples;Min_cycle;Max_cycle;Signal;HPM_P1;HPM_P2
2022/03/15 00:00:02;;;;;;;24.80;6.63;;;;;;;;;;4948211;28;20062;-69
2022/03/15 00:02:30;;;;;;;20.58;6.28;;;;;;;;;;4948567;28;20105;-69
2022/03/15 00:04:57;;;;;;;22.98;6.40;;;;;;;;;;4948282;28;20047;-69
2022/03/15 00:07:24;;;;;;;20.73;7.85;;;;;;;;;;4952403;28;20055;-69
2022/03/15 00:09:51;;;;;;;24.02;8.05;;;;;;;;;;4955720;28;20121;-69
2022/03/15 00:12:20;;;;;;;20.13;6.57;;;;;;;;;;4956176;28;20046;-69
2022/03/15 00:14:47;;;;;;;20.02;6.75;;;;;;;;;;4947982;28;20129;-69
2022/03/15 00:17:15;;;;;;;25.35;8.02;;;;;;;;;;4986135;28;20086;-69
2022/03/15 00:19:42;;;;;;;21.45;7.68;;;;;;;;;;4957069;28;20533;-69
2022/03/15 00:22:09;;;;;;;21.98;8.50;;;;;;;;;;4953044;28;20498;-69
2022/03/15 00:24:37;;;;;;;24.52;8.52;;;;;;;;;;4954693;28;20070;-69
2022/03/15 00:27:05;;;;;;;25.67;8.95;;;;;;;;;;4950244;28;20062;-69
2022/03/15 00:29:35;;;;;;;21.83;8.07;;;;;;;;;;4953074;28;20055;-69
2022/03/15 00:32:02;;;;;;;20.17;7.90;;;;;;;;;;4951750;28;20062;-69
2022/03/15 00:34:29;;;;;;;35.13;9.52;;;;;;;;;;4946934;28;20110;-69
2022/03/15 00:36:56;;;;;;;26.85;9.65;;;;;;;;;;4951877;28;20866;-69
2022/03/15 00:39:24;;;;;;;23.92;9.40;;;;;;;;;;4951797;28;20050;-69
2022/03/15 00:41:51;;;;;;;25.92;9.93;;;;;;;;;;4951712;28;20080;-69
2022/03/15 00:44:18;;;;;;;25.23;9.52;;;;;;;;;;4983761;28;20050;-69
2022/03/15 00:46:47;;;;;;;27.98;10.57;;;;;;;;;;4948035;28;20090;-69
2022/03/15 00:49:14;;;;;;;26.92;8.65;;;;;;;;;;4951305;28;20050;-69
2022/03/15 00:51:41;;;;;;;37.33;11.20;;;;;;;;;;4957189;28;20042;-69
2022/03/15 00:54:08;;;;;;;33.97;10.82;;;;;;;;;;4957439;28;20146;-69
2022/03/15 00:56:36;;;;;;;25.33;9.93;;;;;;;;;;4960011;28;20050;-69
2022/03/15 00:59:03;;;;;;;33.88;11.27;;;;;;;;;;4983542;28;20126;-69
2022/03/15 01:01:31;;;;;;;30.67;10.65;;;;;;;;;;4954544;28;20050;-69
2022/03/15 01:04:00;;;;;;;30.23;10.10;;;;;;;;;;4953079;28;20995;-69
2022/03/15 01:06:27;;;;;;;27.55;9.13;;;;;;;;;;4965233;28;20054;-69
2022/03/15 01:08:54;;;;;;;30.77;10.45;;;;;;;;;;4945166;28;20561;-69
2022/03/15 01:11:22;;;;;;;31.73;10.98;;;;;;;;;;4945279;28;20819;-69
2022/03/15 01:13:49;;;;;;;34.03;9.93;;;;;;;;;;4979314;28;20106;-69
2022/03/15 01:16:16;;;;;;;28.30;9.80;;;;;;;;;;4960254;28;21016;-69
2022/03/15 01:18:44;;;;;;;37.05;10.63;;;;;;;;;;4947679;28;20510;-69
2022/03/15 01:21:13;;;;;;;31.25;9.95;;;;;;;;;;4980282;28;20047;-69
2022/03/15 01:23:41;;;;;;;36.78;10.98;;;;;;;;;;4944651;28;20055;-69
2022/03/15 01:26:09;;;;;;;25.30;9.88;;;;;;;;;;4948206;28;20440;-69
2022/03/15 01:28:37;;;;;;;33.47;11.15;;;;;;;;;;4951086;28;20115;-69
2022/03/15 01:31:04;;;;;;;35.33;11.27;;;;;;;;;;4948791;28;20055;-69
2022/03/15 01:33:31;;;;;;;30.33;10.13;;;;;;;;;;4952823;28;20054;-69
2022/03/15 01:35:59;;;;;;;25.52;8.75;;;;;;;;;;4947204;28;20412;-69
2022/03/15 01:38:28;;;;;;;36.50;9.95;;;;;;;;;;4951182;28;20823;-69
2022/03/15 01:40:55;;;;;;;27.42;9.68;;;;;;;;;;4947975;28;20066;-69
2022/03/15 01:43:23;;;;;;;30.63;9.27;;;;;;;;;;4949132;28;20179;-69
2022/03/15 01:45:50;;;;;;;36.08;9.52;;;;;;;;;;4978082;28;20136;-69
2022/03/15 01:48:17;;;;;;;24.83;7.88;;;;;;;;;;4948931;28;20571;-69
2022/03/15 01:50:44;;;;;;;31.38;10.30;;;;;;;;;;4949076;28;20058;-69
2022/03/15 01:53:12;;;;;;;37.15;10.25;;;;;;;;;;4948699;28;20051;-69
2022/03/15 01:55:40;;;;;;;31.98;10.43;;;;;;;;;;4952407;28;20502;-69
2022/03/15 01:58:08;;;;;;;28.60;8.57;;;;;;;;;;4945447;28;20055;-69
2022/03/15 02:00:35;;;;;;;29.83;8.77;;;;;;;;;;4948216;28;20043;-70
2022/03/15 02:03:03;;;;;;;30.48;8.48;;;;;;;;;;4949317;28;20055;-70
2022/03/15 02:05:30;;;;;;;30.98;8.30;;;;;;;;;;4948708;28;20554;-70
2022/03/15 02:07:57;;;;;;;27.52;8.43;;;;;;;;;;4944188;28;20474;-70
2022/03/15 02:10:25;;;;;;;38.42;8.98;;;;;;;;;;4946756;28;20066;-70
2022/03/15 02:12:53;;;;;;;25.95;7.75;;;;;;;;;;4948039;28;20051;-70
2022/03/15 02:15:21;;;;;;;30.25;8.70;;;;;;;;;;4945393;28;20533;-70
2022/03/15 02:17:48;;;;;;;33.33;9.15;;;;;;;;;;4944598;28;20051;-70
2022/03/15 02:20:17;;;;;;;30.20;8.10;;;;;;;;;;4945695;28;20058;-70
2022/03/15 02:22:44;;;;;;;24.88;7.63;;;;;;;;;;4948912;28;20541;-70
2022/03/15 02:25:12;;;;;;;26.50;7.68;;;;;;;;;;4945017;28;20054;-70
2022/03/15 02:27:39;;;;;;;27.92;8.57;;;;;;;;;;4946338;28;20051;-70
2022/03/15 02:30:07;;;;;;;27.33;8.52;;;;;;;;;;4943282;28;20521;-70
2022/03/15 02:32:35;;;;;;;26.60;8.48;;;;;;;;;;4946425;28;20043;-70
2022/03/15 02:35:02;;;;;;;22.35;8.38;;;;;;;;;;4942518;28;20050;-70
2022/03/15 02:37:31;;;;;;;24.38;9.23;;;;;;;;;;4952841;28;20505;-70
2022/03/15 02:39:58;;;;;;;28.17;9.30;;;;;;;;;;4947319;28;20054;-70
2022/03/15 02:42:25;;;;;;;25.13;8.68;;;;;;;;;;4980000;28;20522;-70
2022/03/15 02:44:52;;;;;;;22.80;8.85;;;;;;;;;;4946578;28;20094;-70
2022/03/15 02:47:20;;;;;;;32.28;10.02;;;;;;;;;;4945820;28;20541;-70
2022/03/15 02:49:47;;;;;;;25.50;8.60;;;;;;;;;;4947378;28;20101;-70
2022/03/15 02:52:15;;;;;;;24.90;9.85;;;;;;;;;;4946371;28;20066;-70
2022/03/15 02:54:43;;;;;;;23.17;9.13;;;;;;;;;;4948077;28;20114;-70
2022/03/15 02:57:11;;;;;;;24.33;8.88;;;;;;;;;;4948333;28;20051;-70
2022/03/15 02:59:39;;;;;;;28.67;9.82;;;;;;;;;;4951205;28;20070;-70
2022/03/15 03:02:08;;;;;;;27.80;9.60;;;;;;;;;;4943189;28;20059;-70
2022/03/15 03:04:35;;;;;;;27.33;10.45;;;;;;;;;;4947746;28;20090;-70
2022/03/15 03:07:02;;;;;;;25.25;10.30;;;;;;;;;;4980967;28;20117;-70
2022/03/15 03:09:29;;;;;;;26.30;10.98;;;;;;;;;;4948231;28;20051;-70
2022/03/15 03:11:58;;;;;;;19.80;8.82;;;;;;;;;;4949515;28;20050;-70
2022/03/15 03:14:26;;;;;;;24.45;9.63;;;;;;;;;;4950594;28;20050;-70
2022/03/15 03:16:53;;;;;;;34.67;11.45;;;;;;;;;;4949329;28;20531;-70
2022/03/15 03:19:21;;;;;;;26.50;10.50;;;;;;;;;;4942686;28;20062;-70
2022/03/15 03:21:49;;;;;;;25.40;10.40;;;;;;;;;;4946549;28;20071;-70
2022/03/15 03:24:21;;;;;;;27.38;10.27;;;;;;;;;;4950784;28;20051;-70
2022/03/15 03:26:48;;;;;;;30.73;10.98;;;;;;;;;;4944904;28;20110;-70
2022/03/15 03:29:18;;;;;;;29.20;10.43;;;;;;;;;;4944772;28;20062;-70
2022/03/15 03:31:46;;;;;;;20.13;9.43;;;;;;;;;;4946967;28;20743;-70
2022/03/15 03:34:14;;;;;;;22.42;9.15;;;;;;;;;;4948026;28;20130;-70
2022/03/15 03:36:41;;;;;;;31.58;11.73;;;;;;;;;;4946557;28;20054;-70
2022/03/15 03:39:09;;;;;;;26.85;10.52;;;;;;;;;;4951026;28;20062;-70
2022/03/15 03:41:37;;;;;;;27.90;10.43;;;;;;;;;;4945562;28;20054;-70
2022/03/15 03:44:04;;;;;;;26.85;10.65;;;;;;;;;;4949054;28;20059;-70
2022/03/15 03:46:33;;;;;;;28.80;9.93;;;;;;;;;;4948862;28;20518;-70
2022/03/15 03:49:00;;;;;;;26.50;10.25;;;;;;;;;;4943752;28;20055;-70
2022/03/15 03:51:27;;;;;;;24.40;10.82;;;;;;;;;;4947800;28;20058;-70
2022/03/15 03:53:54;;;;;;;25.05;10.60;;;;;;;;;;4977459;28;20043;-70
2022/03/15 03:56:21;;;;;;;24.33;9.40;;;;;;;;;;4949055;28;20114;-70
2022/03/15 03:58:49;;;;;;;26.30;9.68;;;;;;;;;;4937753;28;20103;-70
2022/03/15 04:01:16;;;;;;;24.25;10.75;;;;;;;;;;4943421;28;20689;-70
2022/03/15 04:03:44;;;;;;;24.33;9.90;;;;;;;;;;4981560;28;20055;-70
2022/03/15 04:06:13;;;;;;;29.38;11.27;;;;;;;;;;4951414;28;20128;-70
2022/03/15 04:08:42;;;;;;;20.95;9.38;;;;;;;;;;4954131;28;20588;-70
2022/03/15 04:11:10;;;;;;;25.83;9.00;;;;;;;;;;4951059;28;20177;-70
2022/03/15 04:13:40;;;;;;;19.05;8.85;;;;;;;;;;4982215;28;20046;-70
2022/03/15 04:16:08;;;;;;;22.10;10.32;;;;;;;;;;4958259;28;20077;-70
2022/03/15 04:18:35;;;;;;;27.95;11.95;;;;;;;;;;4955500;28;20073;-70
2022/03/15 04:21:04;;;;;;;31.73;11.88;;;;;;;;;;4984048;28;20093;-70
2022/03/15 04:23:31;;;;;;;30.92;11.82;;;;;;;;;;4960406;28;20102;-70
2022/03/15 04:25:59;;;;;;;33.60;11.05;;;;;;;;;;4970037;28;20150;-70
2022/03/15 04:28:26;;;;;;;22.23;10.40;;;;;;;;;;4957451;28;20113;-70
2022/03/15 04:30:53;;;;;;;29.50;11.60;;;;;;;;;;4954552;28;20105;-70
2022/03/15 04:33:21;;;;;;;31.70;11.95;;;;;;;;;;4950091;28;20047;-70
2022/03/15 04:35:48;;;;;;;32.67;12.27;;;;;;;;;;4985404;28;20240;-70
2022/03/15 04:38:16;;;;;;;29.90;13.10;;;;;;;;;;4952590;28;20062;-70
2022/03/15 04:40:44;;;;;;;22.92;11.98;;;;;;;;;;4967594;28;20055;-70
2022/03/15 04:43:11;;;;;;;24.98;12.07;;;;;;;;;;4952913;28;20058;-70
2022/03/15 04:45:38;;;;;;;22.02;10.43;;;;;;;;;;4954469;28;20150;-70
2022/03/15 04:48:06;;;;;;;21.10;10.45;;;;;;;;;;4969575;28;20131;-70
2022/03/15 04:50:33;;;;;;;28.02;12.10;;;;;;;;;;4951380;28;20058;-70
2022/03/15 04:53:00;;;;;;;29.23;11.98;;;;;;;;;;4949857;28;20674;-70
2022/03/15 04:55:29;;;;;;;27.85;11.88;;;;;;;;;;4982874;28;20062;-70
2022/03/15 04:57:56;;;;;;;23.58;11.73;;;;;;;;;;4951880;28;20061;-70
2022/03/15 05:00:23;;;;;;;34.50;13.75;;;;;;;;;;4954615;28;20082;-70
2022/03/15 05:02:51;;;;;;;32.00;12.15;;;;;;;;;;4987661;28;20054;-70
2022/03/15 05:05:18;;;;;;;31.65;13.05;;;;;;;;;;4972135;28;20058;-70
2022/03/15 05:07:45;;;;;;;25.60;10.52;;;;;;;;;;4970645;28;20502;-70
2022/03/15 05:13:00;;;;;;;28.33;13.60;;;;;;;;;;4957987;28;20136;-70
2022/03/15 05:15:28;;;;;;;28.02;14.07;;;;;;;;;;4945430;28;20050;-70
2022/03/15 05:17:55;;;;;;;28.00;13.45;;;;;;;;;;4933651;28;20051;-70
2022/03/15 05:20:23;;;;;;;26.88;11.77;;;;;;;;;;4946601;28;20063;-70
2022/03/15 05:22:50;;;;;;;31.42;13.65;;;;;;;;;;4951877;28;20049;-70
2022/03/15 05:25:17;;;;;;;29.90;13.43;;;;;;;;;;4950707;28;20102;-70
2022/03/15 05:27:45;;;;;;;25.13;11.30;;;;;;;;;;4948934;28;20047;-70
2022/03/15 05:30:17;;;;;;;30.05;13.63;;;;;;;;;;4948927;28;20055;-70
2022/03/15 05:32:44;;;;;;;26.75;13.20;;;;;;;;;;4949717;28;20051;-70
2022/03/15 05:35:11;;;;;;;26.60;13.07;;;;;;;;;;4947649;28;20055;-70
2022/03/15 05:37:38;;;;;;;31.95;13.20;;;;;;;;;;4943869;28;20055;-70
2022/03/15 05:40:06;;;;;;;29.85;14.23;;;;;;;;;;4941180;28;20125;-70
2022/03/15 05:42:33;;;;;;;24.92;14.90;;;;;;;;;;4941800;28;20154;-70
2022/03/15 05:45:01;;;;;;;37.10;21.85;;;;;;;;;;4941790;28;20526;-70
2022/03/15 05:47:29;;;;;;;33.78;18.85;;;;;;;;;;4945399;28;20047;-70
2022/03/15 05:49:56;;;;;;;27.45;15.75;;;;;;;;;;4942642;28;20102;-70
2022/03/15 05:52:24;;;;;;;31.50;15.55;;;;;;;;;;4946735;28;20059;-70
2022/03/15 05:54:51;;;;;;;32.00;14.65;;;;;;;;;;4947453;28;20511;-70
2022/03/15 05:57:18;;;;;;;28.60;13.45;;;;;;;;;;4942458;28;20487;-70
2022/03/15 05:59:45;;;;;;;29.35;14.30;;;;;;;;;;4949381;28;20060;-70
2022/03/15 06:02:12;;;;;;;30.02;15.77;;;;;;;;;;4932477;28;20125;-70
2022/03/15 06:04:41;;;;;;;29.85;16.00;;;;;;;;;;4931118;28;20402;-70
2022/03/15 06:07:08;;;;;;;32.03;15.45;;;;;;;;;;4938728;28;20063;-70
2022/03/15 06:09:35;;;;;;;26.70;13.80;;;;;;;;;;4936834;28;20066;-70
2022/03/15 06:12:03;;;;;;;27.60;13.52;;;;;;;;;;4941331;28;20058;-70
2022/03/15 06:14:30;;;;;;;31.55;16.20;;;;;;;;;;4940929;28;20655;-70
2022/03/15 06:16:57;;;;;;;26.60;15.65;;;;;;;;;;4941027;28;20259;-70
2022/03/15 06:19:25;;;;;;;35.47;18.35;;;;;;;;;;4940559;28;20110;-71
2022/03/15 06:21:54;;;;;;;31.65;17.13;;;;;;;;;;4942799;28;20070;-71
2022/03/15 06:24:22;;;;;;;29.80;16.73;;;;;;;;;;4943870;28;20106;-71
2022/03/15 06:26:49;;;;;;;28.02;15.80;;;;;;;;;;4943725;28;20054;-71
2022/03/15 06:29:17;;;;;;;26.83;15.02;;;;;;;;;;4946314;28;20114;-71
2022/03/15 06:31:44;;;;;;;35.55;15.93;;;;;;;;;;4948221;28;20062;-71
2022/03/15 06:34:12;;;;;;;38.38;16.70;;;;;;;;;;4942580;28;20044;-71
2022/03/15 06:36:41;;;;;;;37.10;16.70;;;;;;;;;;4949932;28;20553;-71
2022/03/15 06:39:10;;;;;;;25.88;15.35;;;;;;;;;;4940325;28;20059;-71
2022/03/15 06:41:38;;;;;;;31.02;16.80;;;;;;;;;;4935905;28;20511;-71
2022/03/15 06:44:06;;;;;;;35.38;17.85;;;;;;;;;;4936214;28;20133;-71
2022/03/15 06:46:33;;;;;;;36.10;19.15;;;;;;;;;;4934389;28;20062;-71
2022/03/15 06:49:00;;;;;;;40.47;19.17;;;;;;;;;;4966595;28;20455;-71
2022/03/15 06:51:28;;;;;;;35.15;20.42;;;;;;;;;;4934522;28;20062;-71
2022/03/15 06:53:55;;;;;;;32.22;18.48;;;;;;;;;;4967946;28;20047;-71
2022/03/15 06:56:24;;;;;;;30.63;17.67;;;;;;;;;;4932708;28;20146;-71
2022/03/15 06:58:52;;;;;;;35.90;19.58;;;;;;;;;;4936380;28;20614;-71
2022/03/15 07:01:19;;;;;;;32.67;19.05;;;;;;;;;;4936091;28;20062;-71
2022/03/15 07:03:46;;;;;;;37.67;20.02;;;;;;;;;;4935180;28;20051;-71
2022/03/15 07:06:14;;;;;;;38.33;19.85;;;;;;;;;;4953825;28;20066;-71
2022/03/15 07:08:41;;;;;;;42.58;21.05;;;;;;;;;;4933677;28;20064;-71
2022/03/15 07:11:08;;;;;;;35.97;19.15;;;;;;;;;;4972309;28;20058;-71
2022/03/15 07:13:37;;;;;;;37.95;18.90;;;;;;;;;;4959037;28;20042;-71
2022/03/15 07:16:04;;;;;;;39.95;19.92;;;;;;;;;;4971241;28;20525;-71
2022/03/15 07:18:31;;;;;;;36.65;20.77;;;;;;;;;;4970662;28;20581;-71
2022/03/15 07:20:58;;;;;;;33.72;19.00;;;;;;;;;;4942827;28;20114;-71
2022/03/15 07:23:26;;;;;;;39.53;20.02;;;;;;;;;;4971224;28;20133;-71
2022/03/15 07:25:53;;;;;;;36.80;20.52;;;;;;;;;;4938834;28;20111;-71
2022/03/15 07:28:20;;;;;;;40.28;20.70;;;;;;;;;;4939509;28;20051;-71
2022/03/15 07:30:49;;;;;;;34.83;19.40;;;;;;;;;;4941283;28;20188;-71
2022/03/15 07:33:16;;;;;;;37.83;19.38;;;;;;;;;;4940241;28;20047;-71
2022/03/15 07:35:43;;;;;;;36.72;19.08;;;;;;;;;;4939499;28;20062;-71
2022/03/15 07:38:11;;;;;;;48.25;19.23;;;;;;;;;;4939354;28;20058;-71
2022/03/15 07:40:39;;;;;;;33.08;17.15;;;;;;;;;;4942580;28;20054;-71
2022/03/15 07:43:06;;;;;;;34.70;17.02;;;;;;;;;;4941273;28;20049;-71
2022/03/15 07:45:33;;;;;;;34.03;18.15;;;;;;;;;;4942504;28;20109;-71
2022/03/15 07:48:02;;;;;;;30.73;15.98;;;;;;;;;;4971846;28;20161;-71
2022/03/15 07:50:29;;;;;;;35.33;16.58;;;;;;;;;;4973314;28;20113;-71
2022/03/15 07:52:56;;;;;;;39.75;16.20;;;;;;;;;;4940434;28;20063;-71
2022/03/15 07:55:24;;;;;;;36.83;16.80;;;;;;;;;;4943156;28;20417;-71
2022/03/15 07:57:51;;;;;;;29.73;15.77;;;;;;;;;;4945928;28;20054;-71
2022/03/15 08:00:18;;;;;;;34.00;14.15;;;;;;;;;;4949130;28;20782;-71
2022/03/15 08:02:45;;;;;;;31.15;15.18;;;;;;;;;;4949335;28;20140;-71
2022/03/15 08:05:14;;;;;;;31.45;15.00;;;;;;;;;;4942179;28;20109;-71
2022/03/15 08:07:41;;;;;;;34.65;15.18;;;;;;;;;;4938389;28;20062;-71
2022/03/15 08:10:10;;;;;;;33.30;15.45;;;;;;;;;;4956514;28;20113;-71
2022/03/15 08:12:38;;;;;;;33.45;15.60;;;;;;;;;;4972740;28;20059;-70
2022/03/15 08:15:06;;;;;;;28.60;13.80;;;;;;;;;;4972185;28;20058;-70
2022/03/15 08:17:33;;;;;;;31.08;14.38;;;;;;;;;;4941802;28;20061;-70
2022/03/15 08:20:00;;;;;;;30.90;14.35;;;;;;;;;;4957082;28;20062;-70
2022/03/15 08:22:30;;;;;;;35.53;14.48;;;;;;;;;;4940558;28;20043;-70
2022/03/15 08:24:58;;;;;;;32.80;14.00;;;;;;;;;;4941196;28;22503;-70
2022/03/15 08:27:25;;;;;;;28.48;14.00;;;;;;;;;;4942548;28;20101;-70
2022/03/15 08:29:53;;;;;;;26.48;13.13;;;;;;;;;;4976805;28;20666;-70
2022/03/15 08:32:20;;;;;;;25.55;13.07;;;;;;;;;;4940668;28;20051;-70
2022/03/15 08:34:47;;;;;;;28.65;13.07;;;;;;;;;;4957496;28;20038;-70
2022/03/15 08:37:14;;;;;;;27.75;11.95;;;;;;;;;;4943384;28;20070;-70
2022/03/15 08:39:43;;;;;;;27.98;11.98;;;;;;;;;;4944384;28;20141;-70
2022/03/15 08:42:11;;;;;;;26.15;11.85;;;;;;;;;;4944955;28;20066;-70
2022/03/15 08:48:23;;;;;;;26.63;10.90;;;;;;;;;;5271708;23;20117;-70
2022/03/15 08:50:50;;;;;;;22.73;10.63;;;;;;;;;;4985225;28;20060;-71
2022/03/15 08:53:17;;;;;;;24.77;10.90;;;;;;;;;;4979608;28;20054;-71
2022/03/15 08:55:46;;;;;;;26.02;10.23;;;;;;;;;;4998887;28;20050;-71
2022/03/15 08:58:13;;;;;;;20.08;9.45;;;;;;;;;;4972435;28;20128;-71
2022/03/15 09:00:40;;;;;;;24.70;9.65;;;;;;;;;;4982962;28;20065;-71
2022/03/15 09:03:07;;;;;;;14.55;8.38;;;;;;;;;;4985342;28;20061;-71
2022/03/15 09:05:34;;;;;;;20.40;8.93;;;;;;;;;;4982142;28;20071;-70
2022/03/15 09:08:02;;;;;;;23.45;9.07;;;;;;;;;;4984460;28;20057;-71
2022/03/15 09:10:29;;;;;;;18.50;8.90;;;;;;;;;;5001884;28;20046;-70
2022/03/15 09:12:57;;;;;;;20.40;8.93;;;;;;;;;;5000482;28;20049;-70
2022/03/15 09:15:25;;;;;;;21.77;8.95;;;;;;;;;;4999414;28;20045;-70
2022/03/15 09:17:52;;;;;;;26.52;9.88;;;;;;;;;;4982466;28;20086;-70
2022/03/15 09:20:20;;;;;;;19.98;9.05;;;;;;;;;;4981971;28;20062;-70
2022/03/15 09:22:47;;;;;;;21.35;9.30;;;;;;;;;;4981685;28;20050;-70
2022/03/15 09:25:15;;;;;;;20.80;9.25;;;;;;;;;;4982257;28;20054;-70
2022/03/15 09:27:42;;;;;;;26.98;11.25;;;;;;;;;;4983031;28;20062;-71
2022/03/15 09:30:12;;;;;;;25.10;11.82;;;;;;;;;;4984928;28;20058;-71
2022/03/15 09:32:39;;;;;;;30.30;12.85;;;;;;;;;;4987359;28;20495;-71
2022/03/15 09:35:07;;;;;;;23.75;11.02;;;;;;;;;;4985553;28;20054;-71
2022/03/15 09:37:35;;;;;;;23.30;11.80;;;;;;;;;;4984579;28;20061;-71
2022/03/15 09:40:02;;;;;;;32.85;12.20;;;;;;;;;;4986586;28;20053;-71
2022/03/15 09:42:30;;;;;;;25.35;13.32;;;;;;;;;;4984271;28;20049;-71
2022/03/15 09:44:58;;;;;;;29.17;13.98;;;;;;;;;;4987555;28;20108;-71
2022/03/15 09:47:30;;;;;;;28.30;14.73;;;;;;;;;;4987178;28;20061;-71
2022/03/15 09:49:58;;;;;;;28.58;15.25;;;;;;;;;;4986167;28;20058;-71
2022/03/15 09:52:26;;;;;;;35.05;16.75;;;;;;;;;;4985667;28;20563;-71
2022/03/15 09:54:54;;;;;;;32.65;17.10;;;;;;;;;;4983828;28;20051;-71
2022/03/15 09:57:22;;;;;;;33.60;17.55;;;;;;;;;;4982619;28;20384;-70
2022/03/15 09:59:51;;;;;;;34.45;19.08;;;;;;;;;;4983356;28;20491;-71
2022/03/15 10:02:18;;;;;;;35.88;18.38;;;;;;;;;;5001729;28;20042;-71
2022/03/15 10:04:50;;;;;;;32.10;18.38;;;;;;;;;;4986574;28;20065;-72
2022/03/15 10:07:18;;;;;;;32.15;19.08;;;;;;;;;;4984683;28;20268;-72
2022/03/15 10:09:45;;;;;;;35.50;19.05;;;;;;;;;;4983653;28;20050;-72
2022/03/15 10:12:13;;;;;;;43.35;19.35;;;;;;;;;;4986257;28;20073;-72
2022/03/15 10:14:45;;;;;;;30.98;18.85;;;;;;;;;;4985374;28;20053;-72
2022/03/15 10:17:14;;;;;;;36.78;20.02;;;;;;;;;;4981173;28;20054;-72
2022/03/15 10:19:52;;;;;;;33.00;19.33;;;;;;;;;;4984047;28;20141;-71
2022/03/15 10:22:21;;;;;;;40.35;21.48;;;;;;;;;;4985562;28;20460;-71
2022/03/15 10:24:48;;;;;;;40.95;21.60;;;;;;;;;;4986793;28;20057;-71
2022/03/15 10:27:16;;;;;;;38.90;21.17;;;;;;;;;;4989838;28;20058;-71
2022/03/15 10:29:43;;;;;;;45.20;21.80;;;;;;;;;;4988124;28;20054;-71
2022/03/15 10:32:11;;;;;;;39.67;21.63;;;;;;;;;;4989900;28;20107;-71
2022/03/15 10:34:38;;;;;;;33.88;18.25;;;;;;;;;;4988715;28;20516;-71
2022/03/15 10:37:08;;;;;;;37.08;19.83;;;;;;;;;;4989978;28;20045;-70
2022/03/15 10:39:36;;;;;;;37.50;18.75;;;;;;;;;;4987613;28;20053;-70
2022/03/15 10:42:06;;;;;;;30.60;18.73;;;;;;;;;;4986079;28;20047;-70
2022/03/15 10:44:34;;;;;;;37.33;20.17;;;;;;;;;;4990160;28;20054;-70
2022/03/15 10:47:03;;;;;;;39.22;19.73;;;;;;;;;;4984502;28;20046;-71
2022/03/15 10:49:31;;;;;;;35.40;21.00;;;;;;;;;;4998378;28;20072;-71
2022/03/15 10:51:59;;;;;;;36.42;21.15;;;;;;;;;;4978214;28;20058;-71
2022/03/15 10:54:28;;;;;;;45.65;20.45;;;;;;;;;;4979872;28;20053;-71
2022/03/15 10:56:57;;;;;;;36.40;19.48;;;;;;;;;;4983291;28;20085;-71
2022/03/15 10:59:24;;;;;;;37.13;19.17;;;;;;;;;;4976897;28;20463;-71
2022/03/15 11:01:51;;;;;;;35.45;18.90;;;;;;;;;;4981485;28;20132;-71
2022/03/15 11:04:20;;;;;;;35.20;19.58;;;;;;;;;;4985132;28;20401;-71
2022/03/15 11:06:49;;;;;;;37.55;20.25;;;;;;;;;;4995179;28;20527;-71
2022/03/15 11:09:17;;;;;;;35.75;20.45;;;;;;;;;;4978117;28;20389;-71
2022/03/15 11:11:46;;;;;;;38.80;20.33;;;;;;;;;;4982354;28;20444;-70
2022/03/15 11:14:14;;;;;;;37.05;21.58;;;;;;;;;;4981092;28;20163;-70
2022/03/15 11:16:45;;;;;;;39.45;20.10;;;;;;;;;;4981683;28;20071;-70
2022/03/15 11:19:14;;;;;;;37.17;20.73;;;;;;;;;;4987672;28;20077;-70
2022/03/15 11:21:43;;;;;;;32.88;20.63;;;;;;;;;;4988152;28;20758;-71
2022/03/15 11:24:13;;;;;;;39.53;23.75;;;;;;;;;;4991099;28;20891;-71
2022/03/15 11:26:44;;;;;;;39.85;22.35;;;;;;;;;;4987786;28;20077;-70
2022/03/15 11:29:13;;;;;;;38.47;21.52;;;;;;;;;;4995338;28;20141;-70
2022/03/15 11:31:41;;;;;;;44.47;23.55;;;;;;;;;;4983185;28;20042;-70
2022/03/15 11:34:09;;;;;;;38.45;20.50;;;;;;;;;;4976773;28;20057;-70
2022/03/15 11:36:36;;;;;;;39.17;18.98;;;;;;;;;;4974926;28;20674;-70
2022/03/15 11:39:03;;;;;;;32.25;18.92;;;;;;;;;;4996495;28;20053;-69
2022/03/15 11:41:31;;;;;;;36.70;19.13;;;;;;;;;;4978174;28;20061;-69
2022/03/15 11:44:01;;;;;;;35.35;20.70;;;;;;;;;;4980703;28;20475;-70
2022/03/15 11:46:32;;;;;;;41.20;23.27;;;;;;;;;;4977038;28;20488;-70
2022/03/15 11:49:04;;;;;;;33.35;19.77;;;;;;;;;;4978164;28;20488;-70
2022/03/15 11:51:39;;;;;;;36.45;18.05;;;;;;;;;;4978822;28;20058;-70
2022/03/15 11:54:11;;;;;;;32.05;18.08;;;;;;;;;;4984303;28;20227;-70
2022/03/15 11:56:41;;;;;;;36.85;18.83;;;;;;;;;;4987457;28;20062;-70
2022/03/15 11:59:08;;;;;;;32.28;17.90;;;;;;;;;;4987893;28;20062;-71
2022/03/15 12:01:47;;;;;;;36.72;16.83;;;;;;;;;;4986741;28;20488;-70
2022/03/15 12:04:15;;;;;;;36.88;19.63;;;;;;;;;;5003308;28;20551;-70
2022/03/15 12:06:54;;;;;;;33.40;19.45;;;;;;;;;;4997037;28;20053;-70
2022/03/15 12:09:22;;;;;;;46.25;22.65;;;;;;;;;;5003008;28;20385;-70
2022/03/15 12:12:00;;;;;;;30.77;17.00;;;;;;;;;;4990178;28;20128;-70
2022/03/15 12:14:38;;;;;;;25.58;14.77;;;;;;;;;;4991045;28;20057;-70
2022/03/15 12:17:07;;;;;;;25.20;13.98;;;;;;;;;;4991194;28;20193;-70
2022/03/15 12:19:41;;;;;;;26.48;11.95;;;;;;;;;;4989516;28;20104;-70
2022/03/15 12:22:11;;;;;;;26.60;13.18;;;;;;;;;;4994630;28;20136;-70
2022/03/15 12:24:39;;;;;;;22.45;11.60;;;;;;;;;;4995448;28;20425;-70
2022/03/15 12:27:07;;;;;;;27.13;13.68;;;;;;;;;;4997060;28;20500;-70
2022/03/15 12:29:36;;;;;;;34.85;17.80;;;;;;;;;;4991329;28;20053;-70
2022/03/15 12:32:14;;;;;;;26.10;15.57;;;;;;;;;;4984897;28;20069;-70
2022/03/15 12:34:42;;;;;;;34.35;16.55;;;;;;;;;;4995006;28;20065;-70
2022/03/15 12:37:09;;;;;;;27.60;15.45;;;;;;;;;;4996320;28;20563;-70
2022/03/15 12:39:37;;;;;;;28.75;15.45;;;;;;;;;;4990354;28;20057;-70
2022/03/15 12:42:05;;;;;;;23.02;12.30;;;;;;;;;;5003083;28;20050;-70
2022/03/15 12:44:40;;;;;;;24.73;14.02;;;;;;;;;;4991103;28;20041;-70
2022/03/15 12:47:07;;;;;;;20.48;11.98;;;;;;;;;;4992048;28;20108;-70
2022/03/15 12:49:36;;;;;;;15.85;8.93;;;;;;;;;;4990342;28;20077;-70
2022/03/15 12:52:10;;;;;;;20.30;8.68;;;;;;;;;;4996355;28;20460;-70
2022/03/15 12:54:37;;;;;;;17.40;9.40;;;;;;;;;;5012917;28;20050;-70
2022/03/15 12:57:08;;;;;;;19.80;10.50;;;;;;;;;;4996870;28;20062;-70
2022/03/15 12:59:36;;;;;;;19.23;9.68;;;;;;;;;;4986387;28;20147;-70
2022/03/15 13:02:04;;;;;;;18.50;10.52;;;;;;;;;;4993849;28;20559;-70
2022/03/15 13:04:32;;;;;;;17.88;8.80;;;;;;;;;;5004191;28;20491;-70
2022/03/15 13:07:04;;;;;;;22.50;9.93;;;;;;;;;;5003286;28;20139;-70
2022/03/15 13:09:32;;;;;;;15.65;7.65;;;;;;;;;;4990089;28;20088;-70
2022/03/15 13:12:01;;;;;;;15.25;8.32;;;;;;;;;;4991363;28;20069;-70
2022/03/15 13:14:30;;;;;;;16.98;8.07;;;;;;;;;;4984936;28;20062;-70
2022/03/15 13:16:59;;;;;;;14.57;7.35;;;;;;;;;;4994660;28;20085;-70
2022/03/15 13:19:27;;;;;;;18.08;8.07;;;;;;;;;;5007480;28;20435;-70
2022/03/15 13:21:55;;;;;;;21.38;10.20;;;;;;;;;;4990960;28;20050;-70
2022/03/15 13:24:24;;;;;;;20.50;10.00;;;;;;;;;;4983778;28;20559;-70
2022/03/15 13:26:52;;;;;;;16.13;8.57;;;;;;;;;;4985362;28;20060;-70
2022/03/15 13:29:21;;;;;;;21.15;8.65;;;;;;;;;;5002508;28;20078;-70
2022/03/15 13:31:48;;;;;;;15.35;8.05;;;;;;;;;;4981903;28;20057;-70
2022/03/15 13:34:22;;;;;;;17.33;7.18;;;;;;;;;;5002905;28;20061;-70
2022/03/15 13:36:50;;;;;;;15.75;7.72;;;;;;;;;;4986040;28;20116;-70
2022/03/15 13:39:18;;;;;;;18.25;7.68;;;;;;;;;;5004345;28;20135;-70
2022/03/15 13:41:51;;;;;;;16.58;7.30;;;;;;;;;;5003201;28;20085;-70
2022/03/15 13:44:19;;;;;;;12.93;6.43;;;;;;;;;;4988404;28;20971;-70
2022/03/15 13:46:47;;;;;;;11.65;5.60;;;;;;;;;;5005133;28;20058;-70
2022/03/15 13:49:20;;;;;;;12.85;5.43;;;;;;;;;;4988824;28;20065;-70
2022/03/15 13:51:47;;;;;;;14.10;6.72;;;;;;;;;;5005498;28;20053;-69
2022/03/15 13:54:16;;;;;;;11.07;5.00;;;;;;;;;;4987448;28;20085;-69
2022/03/15 13:56:45;;;;;;;15.65;5.32;;;;;;;;;;4986193;28;20148;-70
2022/03/15 13:59:15;;;;;;;14.30;6.20;;;;;;;;;;4985444;28;20069;-70
2022/03/15 14:01:43;;;;;;;16.75;6.13;;;;;;;;;;4986805;28;20500;-70
2022/03/15 14:04:11;;;;;;;11.13;5.25;;;;;;;;;;4987313;28;20460;-70
2022/03/15 14:06:41;;;;;;;12.50;4.63;;;;;;;;;;4985154;28;20112;-70
2022/03/15 14:09:08;;;;;;;14.65;4.57;;;;;;;;;;4982744;28;20058;-70
2022/03/15 14:11:41;;;;;;;8.80;4.03;;;;;;;;;;5003813;28;20053;-70
2022/03/15 14:14:09;;;;;;;12.13;3.95;;;;;;;;;;4988943;28;20064;-71
2022/03/15 14:16:39;;;;;;;10.32;4.45;;;;;;;;;;5006110;28;20516;-71
2022/03/15 14:19:08;;;;;;;13.02;4.35;;;;;;;;;;4991350;28;20061;-71
2022/03/15 14:21:36;;;;;;;11.55;4.28;;;;;;;;;;4988346;28;20062;-71
2022/03/15 14:24:04;;;;;;;12.80;4.53;;;;;;;;;;5005777;28;20076;-70
2022/03/15 14:26:32;;;;;;;12.82;4.28;;;;;;;;;;4983142;28;20081;-70
2022/03/15 14:29:04;;;;;;;9.35;4.20;;;;;;;;;;4990135;28;20137;-70
2022/03/15 14:31:40;;;;;;;9.65;3.75;;;;;;;;;;4991001;28;20074;-70